KGON/GON METAR and TAF weather

Enter ICAO airport designator
Station Type Date Time Source
KGON METAR 2019/02/18 03:56 UTC NOAA

KGON 180356Z AUTO 27003KT 10SM OVC065 01/M04 A3003 RMK AO2 UPB19E56 SLP169 P0000 T00061039 $


Station Type Date Time Source
KGON Decoded METAR 2019/02/18 03:56 UTC NOAA

GROTON/NEW LONDON AIRPORT , CT, United States (KGON) 41-20N 72-03W 3M
Feb 17, 2019 - 10:56 PM EST / 2019.02.18 0356 UTC
Wind: from the W (270 degrees) at 3 MPH (3 KT):0
Visibility: 10 mile(s):0
Sky conditions: overcast
Precipitation last hour: A trace
Temperature: 33.1 F (0.6 C)
Dew Point: 25.0 F (-3.9 C)
Relative Humidity: 71%
Pressure (altimeter): 30.03 in. Hg (1016 hPa)
ob: KGON 180356Z AUTO 27003KT 10SM OVC065 01/M04 A3003 RMK AO2 UPB19E56 SLP169 P0000 T00061039
cycle: 4

Station Type Date Time Source
KGON TAF 2019/02/18 03:36 UTC NOAA

TAF
AMD KGON 180233Z 1803/1824 VRB05KT P6SM BKN050
FM180500 14005KT 2SM -SN BR BKN015
FM180800 09008KT 2SM -SNPL OVC007
FM181200 08007KT 2SM -FZRAPL OVC004
FM181400 04005KT 5SM -DZ BR OVC004
FM181800 32008KT P6SM OVC008
FM182200 32012KT P6SM BKN015 OVC025


Example: see airport list